sensor_id;sensor_type;location;lat;lon;timestamp;temperature;humidity
65573;SHT30;52214;50.940;13.996;2022-12-22T00:01:44;2.11;99.99
65573;SHT30;52214;50.940;13.996;2022-12-22T00:04:29;2.22;99.99
65573;SHT30;52214;50.940;13.996;2022-12-22T00:07:13;2.26;99.99
65573;SHT30;52214;50.940;13.996;2022-12-22T00:09:57;2.29;99.99
65573;SHT30;52214;50.940;13.996;2022-12-22T00:12:41;2.26;99.99
65573;SHT30;52214;50.940;13.996;2022-12-22T00:15:27;2.24;99.99
65573;SHT30;52214;50.940;13.996;2022-12-22T00:18:14;2.28;99.99
65573;SHT30;52214;50.940;13.996;2022-12-22T00:20:58;2.22;99.99
65573;SHT30;52214;50.940;13.996;2022-12-22T00:23:43;2.10;99.99
65573;SHT30;52214;50.940;13.996;2022-12-22T00:26:32;1.93;99.99
65573;SHT30;52214;50.940;13.996;2022-12-22T00:29:16;2.00;99.99
65573;SHT30;52214;50.940;13.996;2022-12-22T00:32:02;2.18;99.99
65573;SHT30;52214;50.940;13.996;2022-12-22T00:34:46;2.14;99.99
65573;SHT30;52214;50.940;13.996;2022-12-22T00:37:35;2.24;99.99
65573;SHT30;52214;50.940;13.996;2022-12-22T00:40:26;2.17;99.99
65573;SHT30;52214;50.940;13.996;2022-12-22T00:43:11;2.07;99.99
65573;SHT30;52214;50.940;13.996;2022-12-22T00:45:55;2.06;99.99
65573;SHT30;52214;50.940;13.996;2022-12-22T00:48:41;2.10;99.99
65573;SHT30;52214;50.940;13.996;2022-12-22T00:51:26;2.20;99.99
65573;SHT30;52214;50.940;13.996;2022-12-22T00:54:12;2.24;99.99
65573;SHT30;52214;50.940;13.996;2022-12-22T00:57:00;2.39;99.99
65573;SHT30;52214;50.940;13.996;2022-12-22T00:59:45;2.52;99.99
65573;SHT30;52214;50.940;13.996;2022-12-22T01:02:30;2.63;99.99
65573;SHT30;52214;50.940;13.996;2022-12-22T01:05:14;2.72;99.99
65573;SHT30;52214;50.940;13.996;2022-12-22T01:07:59;2.57;99.99
65573;SHT30;52214;50.940;13.996;2022-12-22T01:10:43;2.57;99.99
65573;SHT30;52214;50.940;13.996;2022-12-22T01:13:27;2.63;99.99
65573;SHT30;52214;50.940;13.996;2022-12-22T01:16:11;2.53;99.99
65573;SHT30;52214;50.940;13.996;2022-12-22T01:18:56;2.41;99.99
65573;SHT30;52214;50.940;13.996;2022-12-22T01:21:39;2.17;99.99
65573;SHT30;52214;50.940;13.996;2022-12-22T01:24:25;2.14;99.99
65573;SHT30;52214;50.940;13.996;2022-12-22T01:27:10;2.20;99.99
65573;SHT30;52214;50.940;13.996;2022-12-22T01:29:54;2.32;99.99
65573;SHT30;52214;50.940;13.996;2022-12-22T01:32:38;2.32;99.99
65573;SHT30;52214;50.940;13.996;2022-12-22T01:35:26;2.29;99.99
65573;SHT30;52214;50.940;13.996;2022-12-22T01:38:10;2.25;99.99
65573;SHT30;52214;50.940;13.996;2022-12-22T01:40:55;2.22;99.99
65573;SHT30;52214;50.940;13.996;2022-12-22T01:43:40;2.21;99.99
65573;SHT30;52214;50.940;13.996;2022-12-22T01:46:29;2.14;99.99
65573;SHT30;52214;50.940;13.996;2022-12-22T01:49:28;2.24;99.99
65573;SHT30;52214;50.940;13.996;2022-12-22T01:52:16;2.22;99.99
65573;SHT30;52214;50.940;13.996;2022-12-22T01:55:07;2.24;99.99
65573;SHT30;52214;50.940;13.996;2022-12-22T01:57:52;2.20;99.99
65573;SHT30;52214;50.940;13.996;2022-12-22T02:00:36;2.15;99.99
65573;SHT30;52214;50.940;13.996;2022-12-22T02:03:21;2.10;99.99
65573;SHT30;52214;50.940;13.996;2022-12-22T02:06:23;2.07;99.99
65573;SHT30;52214;50.940;13.996;2022-12-22T02:12:23;1.97;99.99
65573;SHT30;52214;50.940;13.996;2022-12-22T02:15:18;1.97;99.99
65573;SHT30;52214;50.940;13.996;2022-12-22T02:18:17;2.01;99.99
65573;SHT30;52214;50.940;13.996;2022-12-22T02:21:05;2.01;99.99
65573;SHT30;52214;50.940;13.996;2022-12-22T02:24:10;1.98;99.99
65573;SHT30;52214;50.940;13.996;2022-12-22T02:27:00;1.96;99.99
65573;SHT30;52214;50.940;13.996;2022-12-22T02:29:54;1.91;99.99
65573;SHT30;52214;50.940;13.996;2022-12-22T02:32:41;1.93;99.99
65573;SHT30;52214;50.940;13.996;2022-12-22T02:35:26;1.97;99.99
65573;SHT30;52214;50.940;13.996;2022-12-22T02:38:44;2.07;99.99
65573;SHT30;52214;50.940;13.996;2022-12-22T02:41:53;2.07;99.99
65573;SHT30;52214;50.940;13.996;2022-12-22T02:45:00;2.04;99.99
65573;SHT30;52214;50.940;13.996;2022-12-22T02:48:19;2.01;99.99
65573;SHT30;52214;50.940;13.996;2022-12-22T02:51:12;2.07;99.99
65573;SHT30;52214;50.940;13.996;2022-12-22T02:53:57;2.06;99.99
65573;SHT30;52214;50.940;13.996;2022-12-22T02:56:41;2.18;99.99
65573;SHT30;52214;50.940;13.996;2022-12-22T02:59:26;2.14;99.99
65573;SHT30;52214;50.940;13.996;2022-12-22T03:02:11;2.14;99.99
65573;SHT30;52214;50.940;13.996;2022-12-22T03:04:56;2.38;99.99
65573;SHT30;52214;50.940;13.996;2022-12-22T03:07:39;2.48;99.99
65573;SHT30;52214;50.940;13.996;2022-12-22T03:10:23;2.44;99.99
65573;SHT30;52214;50.940;13.996;2022-12-22T03:13:07;2.38;99.99
65573;SHT30;52214;50.940;13.996;2022-12-22T03:15:54;2.38;99.99
65573;SHT30;52214;50.940;13.996;2022-12-22T03:18:38;2.32;99.99
65573;SHT30;52214;50.940;13.996;2022-12-22T03:21:22;2.20;99.99
65573;SHT30;52214;50.940;13.996;2022-12-22T03:24:06;2.17;99.99
65573;SHT30;52214;50.940;13.996;2022-12-22T03:26:50;2.21;99.99
65573;SHT30;52214;50.940;13.996;2022-12-22T03:29:16;2.13;99.99
65573;SHT30;52214;50.940;13.996;2022-12-22T03:31:41;2.03;99.99
65573;SHT30;52214;50.940;13.996;2022-12-22T03:34:07;1.98;99.99
65573;SHT30;52214;50.940;13.996;2022-12-22T03:36:32;2.01;99.99
65573;SHT30;52214;50.940;13.996;2022-12-22T03:38:58;2.15;99.99
65573;SHT30;52214;50.940;13.996;2022-12-22T03:41:24;2.14;99.99
65573;SHT30;52214;50.940;13.996;2022-12-22T03:44:08;2.14;99.99
65573;SHT30;52214;50.940;13.996;2022-12-22T03:46:52;2.10;99.99
65573;SHT30;52214;50.940;13.996;2022-12-22T03:49:17;2.15;99.99
65573;SHT30;52214;50.940;13.996;2022-12-22T03:51:45;2.07;99.99
65573;SHT30;52214;50.940;13.996;2022-12-22T03:54:14;2.07;99.99
65573;SHT30;52214;50.940;13.996;2022-12-22T03:56:40;2.11;99.99
65573;SHT30;52214;50.940;13.996;2022-12-22T03:59:06;2.26;99.99
65573;SHT30;52214;50.940;13.996;2022-12-22T04:01:37;2.26;99.99
65573;SHT30;52214;50.940;13.996;2022-12-22T04:04:03;2.35;99.99
65573;SHT30;52214;50.940;13.996;2022-12-22T04:06:28;2.52;99.99
65573;SHT30;52214;50.940;13.996;2022-12-22T04:08:54;2.49;99.99
65573;SHT30;52214;50.940;13.996;2022-12-22T04:11:19;2.28;99.99
65573;SHT30;52214;50.940;13.996;2022-12-22T04:14:03;2.41;99.99
65573;SHT30;52214;50.940;13.996;2022-12-22T04:16:29;2.38;99.99
65573;SHT30;52214;50.940;13.996;2022-12-22T04:18:55;2.31;99.99
65573;SHT30;52214;50.940;13.996;2022-12-22T04:21:20;2.35;99.99
65573;SHT30;52214;50.940;13.996;2022-12-22T04:23:46;2.36;99.99
65573;SHT30;52214;50.940;13.996;2022-12-22T04:26:20;2.34;99.99
65573;SHT30;52214;50.940;13.996;2022-12-22T04:28:46;2.31;99.99
65573;SHT30;52214;50.940;13.996;2022-12-22T04:31:11;2.18;99.99
65573;SHT30;52214;50.940;13.996;2022-12-22T04:33:37;2.24;99.99
65573;SHT30;52214;50.940;13.996;2022-12-22T04:36:03;2.24;99.99
65573;SHT30;52214;50.940;13.996;2022-12-22T04:38:28;2.26;99.99
65573;SHT30;52214;50.940;13.996;2022-12-22T04:40:54;2.08;99.99
65573;SHT30;52214;50.940;13.996;2022-12-22T04:43:20;2.14;99.99
65573;SHT30;52214;50.940;13.996;2022-12-22T04:45:45;2.13;99.99
65573;SHT30;52214;50.940;13.996;2022-12-22T04:48:10;2.06;99.99
65573;SHT30;52214;50.940;13.996;2022-12-22T04:50:36;2.04;99.99
65573;SHT30;52214;50.940;13.996;2022-12-22T04:53:01;2.06;99.99
65573;SHT30;52214;50.940;13.996;2022-12-22T04:55:27;1.98;99.99
65573;SHT30;52214;50.940;13.996;2022-12-22T04:57:52;2.10;99.99
65573;SHT30;52214;50.940;13.996;2022-12-22T05:00:18;1.96;99.99
65573;SHT30;52214;50.940;13.996;2022-12-22T05:02:44;1.98;99.99
65573;SHT30;52214;50.940;13.996;2022-12-22T05:05:09;2.00;99.99
65573;SHT30;52214;50.940;13.996;2022-12-22T05:07:35;1.97;99.99
65573;SHT30;52214;50.940;13.996;2022-12-22T05:10:00;1.89;99.99
65573;SHT30;52214;50.940;13.996;2022-12-22T05:12:25;2.00;99.99
65573;SHT30;52214;50.940;13.996;2022-12-22T05:15:10;2.03;99.99
65573;SHT30;52214;50.940;13.996;2022-12-22T05:17:35;2.18;99.99
65573;SHT30;52214;50.940;13.996;2022-12-22T05:20:01;2.15;99.99
65573;SHT30;52214;50.940;13.996;2022-12-22T05:22:26;2.15;99.99
65573;SHT30;52214;50.940;13.996;2022-12-22T05:24:52;2.07;99.99
65573;SHT30;52214;50.940;13.996;2022-12-22T05:27:17;2.17;99.99
65573;SHT30;52214;50.940;13.996;2022-12-22T05:29:43;2.28;99.99
65573;SHT30;52214;50.940;13.996;2022-12-22T05:32:08;2.34;99.99
65573;SHT30;52214;50.940;13.996;2022-12-22T05:34:34;2.38;99.99
65573;SHT30;52214;50.940;13.996;2022-12-22T05:36:59;2.50;99.99
65573;SHT30;52214;50.940;13.996;2022-12-22T05:39:25;2.49;99.99
65573;SHT30;52214;50.940;13.996;2022-12-22T05:44:27;2.80;99.99
65573;SHT30;52214;50.940;13.996;2022-12-22T05:46:53;2.97;99.99
65573;SHT30;52214;50.940;13.996;2022-12-22T05:49:18;3.05;99.99
65573;SHT30;52214;50.940;13.996;2022-12-22T05:51:44;3.00;99.99
65573;SHT30;52214;50.940;13.996;2022-12-22T05:54:10;3.14;99.99
65573;SHT30;52214;50.940;13.996;2022-12-22T05:56:36;3.15;99.99
65573;SHT30;52214;50.940;13.996;2022-12-22T05:59:01;3.12;99.99
65573;SHT30;52214;50.940;13.996;2022-12-22T06:01:27;3.00;99.99
65573;SHT30;52214;50.940;13.996;2022-12-22T06:03:52;3.00;99.99
65573;SHT30;52214;50.940;13.996;2022-12-22T06:08:55;2.80;99.99
65573;SHT30;52214;50.940;13.996;2022-12-22T06:11:20;2.66;99.99
65573;SHT30;52214;50.940;13.996;2022-12-22T06:13:46;2.75;99.99
65573;SHT30;52214;50.940;13.996;2022-12-22T06:16:11;2.67;99.99
65573;SHT30;52214;50.940;13.996;2022-12-22T06:18:37;2.86;99.99
65573;SHT30;52214;50.940;13.996;2022-12-22T06:21:03;2.83;99.99
65573;SHT30;52214;50.940;13.996;2022-12-22T06:23:28;2.87;99.99
65573;SHT30;52214;50.940;13.996;2022-12-22T06:25:56;2.87;99.99
65573;SHT30;52214;50.940;13.996;2022-12-22T06:28:22;2.76;99.99
65573;SHT30;52214;50.940;13.996;2022-12-22T06:30:48;2.76;99.99
65573;SHT30;52214;50.940;13.996;2022-12-22T06:35:46;2.91;99.99
65573;SHT30;52214;50.940;13.996;2022-12-22T06:38:11;3.00;99.99
65573;SHT30;52214;50.940;13.996;2022-12-22T06:40:37;2.97;99.99
65573;SHT30;52214;50.940;13.996;2022-12-22T06:43:02;2.93;99.99
65573;SHT30;52214;50.940;13.996;2022-12-22T06:45:41;3.01;99.99
65573;SHT30;52214;50.940;13.996;2022-12-22T06:48:09;2.90;99.99
65573;SHT30;52214;50.940;13.996;2022-12-22T06:50:34;2.98;99.99
65573;SHT30;52214;50.940;13.996;2022-12-22T06:53:00;3.04;99.99
65573;SHT30;52214;50.940;13.996;2022-12-22T06:55:26;3.01;99.99
65573;SHT30;52214;50.940;13.996;2022-12-22T06:59:27;2.86;99.99
65573;SHT30;52214;50.940;13.996;2022-12-22T07:01:52;2.87;99.99
65573;SHT30;52214;50.940;13.996;2022-12-22T07:04:18;2.89;99.99
65573;SHT30;52214;50.940;13.996;2022-12-22T07:06:46;3.00;99.99
65573;SHT30;52214;50.940;13.996;2022-12-22T07:09:12;2.87;99.99
65573;SHT30;52214;50.940;13.996;2022-12-22T07:11:38;2.89;99.99
65573;SHT30;52214;50.940;13.996;2022-12-22T07:14:03;2.97;99.99
65573;SHT30;52214;50.940;13.996;2022-12-22T07:16:28;3.03;99.99
65573;SHT30;52214;50.940;13.996;2022-12-22T07:18:54;3.01;99.99
65573;SHT30;52214;50.940;13.996;2022-12-22T07:21:19;3.01;99.99
65573;SHT30;52214;50.940;13.996;2022-12-22T07:25:53;3.00;99.99
65573;SHT30;52214;50.940;13.996;2022-12-22T07:28:18;3.05;99.99
65573;SHT30;52214;50.940;13.996;2022-12-22T07:30:44;3.04;99.99
65573;SHT30;52214;50.940;13.996;2022-12-22T07:33:10;3.11;99.99
65573;SHT30;52214;50.940;13.996;2022-12-22T07:35:35;3.05;99.99
65573;SHT30;52214;50.940;13.996;2022-12-22T07:38:01;3.00;99.99
65573;SHT30;52214;50.940;13.996;2022-12-22T07:40:27;3.12;99.99
65573;SHT30;52214;50.940;13.996;2022-12-22T07:42:56;3.19;99.99
65573;SHT30;52214;50.940;13.996;2022-12-22T07:45:22;3.12;99.99
65573;SHT30;52214;50.940;13.996;2022-12-22T07:49:49;3.28;99.99
65573;SHT30;52214;50.940;13.996;2022-12-22T07:52:33;3.36;99.99
65573;SHT30;52214;50.940;13.996;2022-12-22T07:54:58;3.25;99.99
65573;SHT30;52214;50.940;13.996;2022-12-22T07:57:24;3.31;99.99
65573;SHT30;52214;50.940;13.996;2022-12-22T07:59:51;3.35;99.99
65573;SHT30;52214;50.940;13.996;2022-12-22T08:02:17;3.40;99.99
65573;SHT30;52214;50.940;13.996;2022-12-22T08:04:42;3.43;99.99
65573;SHT30;52214;50.940;13.996;2022-12-22T08:07:08;3.48;99.99
65573;SHT30;52214;50.940;13.996;2022-12-22T08:09:33;3.53;99.99
65573;SHT30;52214;50.940;13.996;2022-12-22T08:13:14;4.31;99.99
65573;SHT30;52214;50.940;13.996;2022-12-22T08:15:40;4.53;99.99
65573;SHT30;52214;50.940;13.996;2022-12-22T08:18:05;4.79;99.99
65573;SHT30;52214;50.940;13.996;2022-12-22T08:20:31;4.88;99.99
65573;SHT30;52214;50.940;13.996;2022-12-22T08:22:57;4.98;99.93
65573;SHT30;52214;50.940;13.996;2022-12-22T08:25:22;5.01;99.62
65573;SHT30;52214;50.940;13.996;2022-12-22T08:27:50;5.11;99.43
65573;SHT30;52214;50.940;13.996;2022-12-22T08:30:16;5.19;99.03
65573;SHT30;52214;50.940;13.996;2022-12-22T08:32:42;5.22;98.91
65573;SHT30;52214;50.940;13.996;2022-12-22T08:35:10;5.21;99.03
65573;SHT30;52214;50.940;13.996;2022-12-22T08:39:26;5.24;98.40
65573;SHT30;52214;50.940;13.996;2022-12-22T08:41:53;5.07;98.38
65573;SHT30;52214;50.940;13.996;2022-12-22T08:44:26;4.49;98.53
65573;SHT30;52214;50.940;13.996;2022-12-22T08:46:54;4.15;99.36
65573;SHT30;52214;50.940;13.996;2022-12-22T08:49:20;4.15;99.48
65573;SHT30;52214;50.940;13.996;2022-12-22T08:51:46;4.00;99.99
65573;SHT30;52214;50.940;13.996;2022-12-22T08:54:12;4.12;99.99
65573;SHT30;52214;50.940;13.996;2022-12-22T08:56:38;4.36;99.99
65573;SHT30;52214;50.940;13.996;2022-12-22T09:01:51;5.09;98.49
65573;SHT30;52214;50.940;13.996;2022-12-22T09:04:18;5.32;97.93
65573;SHT30;52214;50.940;13.996;2022-12-22T09:06:44;5.39;97.79
65573;SHT30;52214;50.940;13.996;2022-12-22T09:09:11;5.09;98.23
65573;SHT30;52214;50.940;13.996;2022-12-22T09:11:37;5.02;97.75
65573;SHT30;52214;50.940;13.996;2022-12-22T09:14:04;4.85;98.06
65573;SHT30;52214;50.940;13.996;2022-12-22T09:16:31;4.69;98.89
65573;SHT30;52214;50.940;13.996;2022-12-22T09:18:57;4.74;99.61
65573;SHT30;52214;50.940;13.996;2022-12-22T09:21:24;4.81;99.10
65573;SHT30;52214;50.940;13.996;2022-12-22T09:25:22;4.80;99.62
65573;SHT30;52214;50.940;13.996;2022-12-22T09:27:48;4.84;99.76
65573;SHT30;52214;50.940;13.996;2022-12-22T09:30:13;4.91;99.99
65573;SHT30;52214;50.940;13.996;2022-12-22T09:32:39;5.38;99.70
65573;SHT30;52214;50.940;13.996;2022-12-22T09:35:05;5.77;98.66
65573;SHT30;52214;50.940;13.996;2022-12-22T09:37:30;5.87;97.92
65573;SHT30;52214;50.940;13.996;2022-12-22T09:39:56;6.35;96.68
65573;SHT30;52214;50.940;13.996;2022-12-22T09:42:21;6.66;95.65
65573;SHT30;52214;50.940;13.996;2022-12-22T09:44:49;7.08;94.19
65573;SHT30;52214;50.940;13.996;2022-12-22T09:47:22;7.32;93.87
65573;SHT30;52214;50.940;13.996;2022-12-22T09:49:50;7.39;93.29
65573;SHT30;52214;50.940;13.996;2022-12-22T09:52:23;7.40;93.24
65573;SHT30;52214;50.940;13.996;2022-12-22T09:54:51;7.40;93.09
65573;SHT30;52214;50.940;13.996;2022-12-22T09:57:17;7.19;93.22
65573;SHT30;52214;50.940;13.996;2022-12-22T09:59:42;6.87;93.02
65573;SHT30;52214;50.940;13.996;2022-12-22T10:02:29;6.56;94.22
65573;SHT30;52214;50.940;13.996;2022-12-22T10:05:09;6.26;95.10
65573;SHT30;52214;50.940;13.996;2022-12-22T10:07:40;5.98;96.09
65573;SHT30;52214;50.940;13.996;2022-12-22T10:10:26;6.01;96.28
65573;SHT30;52214;50.940;13.996;2022-12-22T10:12:55;5.95;96.58
65573;SHT30;52214;50.940;13.996;2022-12-22T10:15:21;5.91;96.90
65573;SHT30;52214;50.940;13.996;2022-12-22T10:17:52;5.93;97.10
65573;SHT30;52214;50.940;13.996;2022-12-22T10:20:22;6.07;96.66
65573;SHT30;52214;50.940;13.996;2022-12-22T10:25:40;6.32;95.22
65573;SHT30;52214;50.940;13.996;2022-12-22T10:28:15;6.38;95.38
65573;SHT30;52214;50.940;13.996;2022-12-22T10:30:42;6.38;95.50
65573;SHT30;52214;50.940;13.996;2022-12-22T10:33:09;6.24;95.59
65573;SHT30;52214;50.940;13.996;2022-12-22T10:35:53;6.05;96.49
65573;SHT30;52214;50.940;13.996;2022-12-22T10:38:22;5.93;96.44
65573;SHT30;52214;50.940;13.996;2022-12-22T10:40:53;5.83;96.73
65573;SHT30;52214;50.940;13.996;2022-12-22T10:43:22;5.70;97.27
65573;SHT30;52214;50.940;13.996;2022-12-22T10:45:49;5.66;97.14
65573;SHT30;52214;50.940;13.996;2022-12-22T10:48:16;5.59;97.65
65573;SHT30;52214;50.940;13.996;2022-12-22T10:50:47;5.50;97.92
65573;SHT30;52214;50.940;13.996;2022-12-22T10:53:13;5.55;97.44
65573;SHT30;52214;50.940;13.996;2022-12-22T10:55:38;5.57;98.01
65573;SHT30;52214;50.940;13.996;2022-12-22T10:58:13;5.67;97.60
65573;SHT30;52214;50.940;13.996;2022-12-22T11:00:39;5.67;97.70
65573;SHT30;52214;50.940;13.996;2022-12-22T11:03:10;5.73;97.69
65573;SHT30;52214;50.940;13.996;2022-12-22T11:05:36;5.78;97.57
65573;SHT30;52214;50.940;13.996;2022-12-22T11:08:18;5.90;96.60
65573;SHT30;52214;50.940;13.996;2022-12-22T11:10:52;5.75;97.62
65573;SHT30;52214;50.940;13.996;2022-12-22T11:13:44;5.57;98.05
65573;SHT30;52214;50.940;13.996;2022-12-22T11:16:32;5.66;97.20
65573;SHT30;52214;50.940;13.996;2022-12-22T11:19:44;5.81;96.87
65573;SHT30;52214;50.940;13.996;2022-12-22T11:25:39;5.66;97.89
65573;SHT30;52214;50.940;13.996;2022-12-22T11:30:25;5.49;97.14
65573;SHT30;52214;50.940;13.996;2022-12-22T11:36:16;5.45;98.59
65573;SHT30;52214;50.940;13.996;2022-12-22T11:38:49;5.59;98.53
65573;SHT30;52214;50.940;13.996;2022-12-22T11:41:39;5.50;99.08
65573;SHT30;52214;50.940;13.996;2022-12-22T11:52:55;5.80;98.44
65573;SHT30;52214;50.940;13.996;2022-12-22T11:55:33;5.80;98.07
65573;SHT30;52214;50.940;13.996;2022-12-22T12:00:44;5.91;97.45
65573;SHT30;52214;50.940;13.996;2022-12-22T12:08:48;6.19;97.84
65573;SHT30;52214;50.940;13.996;2022-12-22T12:14:26;7.21;95.80
65573;SHT30;52214;50.940;13.996;2022-12-22T12:16:59;8.84;91.20
65573;SHT30;52214;50.940;13.996;2022-12-22T12:22:48;10.78;82.46
65573;SHT30;52214;50.940;13.996;2022-12-22T12:25:43;9.83;84.32
65573;SHT30;52214;50.940;13.996;2022-12-22T12:31:02;9.33;87.17
65573;SHT30;52214;50.940;13.996;2022-12-22T12:33:41;9.19;87.48
65573;SHT30;52214;50.940;13.996;2022-12-22T12:36:13;8.47;89.30
65573;SHT30;52214;50.940;13.996;2022-12-22T12:41:49;7.42;93.36
65573;SHT30;52214;50.940;13.996;2022-12-22T12:44:21;7.23;94.03
65573;SHT30;52214;50.940;13.996;2022-12-22T12:52:02;7.83;92.45
65573;SHT30;52214;50.940;13.996;2022-12-22T12:57:24;8.36;91.76
65573;SHT30;52214;50.940;13.996;2022-12-22T12:59:52;8.70;90.28
65573;SHT30;52214;50.940;13.996;2022-12-22T13:08:08;12.85;79.10
65573;SHT30;52214;50.940;13.996;2022-12-22T13:26:35;10.49;81.59
65573;SHT30;52214;50.940;13.996;2022-12-22T13:29:18;10.16;82.83
65573;SHT30;52214;50.940;13.996;2022-12-22T13:31:51;10.13;84.13
65573;SHT30;52214;50.940;13.996;2022-12-22T13:36:53;10.12;85.92
65573;SHT30;52214;50.940;13.996;2022-12-22T13:39:18;10.11;86.49
65573;SHT30;52214;50.940;13.996;2022-12-22T13:41:46;10.12;86.11
65573;SHT30;52214;50.940;13.996;2022-12-22T13:44:37;9.93;87.51
65573;SHT30;52214;50.940;13.996;2022-12-22T13:47:09;9.91;87.31
65573;SHT30;52214;50.940;13.996;2022-12-22T13:49:38;10.01;86.52
65573;SHT30;52214;50.940;13.996;2022-12-22T13:52:05;9.95;86.54
65573;SHT30;52214;50.940;13.996;2022-12-22T13:54:37;9.91;86.95
65573;SHT30;52214;50.940;13.996;2022-12-22T13:57:13;9.75;87.19
65573;SHT30;52214;50.940;13.996;2022-12-22T13:59:42;9.88;86.75
65573;SHT30;52214;50.940;13.996;2022-12-22T14:04:39;9.74;87.53
65573;SHT30;52214;50.940;13.996;2022-12-22T14:07:17;9.84;87.63
65573;SHT30;52214;50.940;13.996;2022-12-22T14:09:47;9.74;88.13
65573;SHT30;52214;50.940;13.996;2022-12-22T14:12:19;9.78;87.78
65573;SHT30;52214;50.940;13.996;2022-12-22T14:14:47;9.71;88.12
65573;SHT30;52214;50.940;13.996;2022-12-22T14:19:52;9.39;89.97
65573;SHT30;52214;50.940;13.996;2022-12-22T14:22:35;9.39;89.89
65573;SHT30;52214;50.940;13.996;2022-12-22T14:25:12;9.29;90.28
65573;SHT30;52214;50.940;13.996;2022-12-22T14:27:45;9.15;90.49
65573;SHT30;52214;50.940;13.996;2022-12-22T14:30:37;9.22;90.44
65573;SHT30;52214;50.940;13.996;2022-12-22T14:35:47;8.87;91.89
65573;SHT30;52214;50.940;13.996;2022-12-22T14:38:18;8.75;92.19
65573;SHT30;52214;50.940;13.996;2022-12-22T14:40:44;8.68;92.37
65573;SHT30;52214;50.940;13.996;2022-12-22T14:45:42;8.71;92.11
65573;SHT30;52214;50.940;13.996;2022-12-22T14:48:09;8.83;91.87
65573;SHT30;52214;50.940;13.996;2022-12-22T14:50:47;8.81;91.77
65573;SHT30;52214;50.940;13.996;2022-12-22T14:53:14;8.77;91.85
65573;SHT30;52214;50.940;13.996;2022-12-22T14:55:47;8.70;92.32
65573;SHT30;52214;50.940;13.996;2022-12-22T14:58:17;9.00;91.20
65573;SHT30;52214;50.940;13.996;2022-12-22T15:00:46;8.95;91.40
65573;SHT30;52214;50.940;13.996;2022-12-22T15:05:50;8.88;91.82
65573;SHT30;52214;50.940;13.996;2022-12-22T15:08:35;8.94;91.45
65573;SHT30;52214;50.940;13.996;2022-12-22T15:11:02;9.14;90.66
65573;SHT30;52214;50.940;13.996;2022-12-22T15:13:28;9.05;90.94
65573;SHT30;52214;50.940;13.996;2022-12-22T15:15:54;9.05;90.98
65573;SHT30;52214;50.940;13.996;2022-12-22T15:18:28;9.12;90.90
65573;SHT30;52214;50.940;13.996;2022-12-22T15:20:55;8.91;91.83
65573;SHT30;52214;50.940;13.996;2022-12-22T15:23:21;8.74;92.41
65573;SHT30;52214;50.940;13.996;2022-12-22T15:25:46;8.91;92.05
65573;SHT30;52214;50.940;13.996;2022-12-22T15:28:12;9.07;91.45
65573;SHT30;52214;50.940;13.996;2022-12-22T15:30:38;8.98;91.93
65573;SHT30;52214;50.940;13.996;2022-12-22T15:33:09;9.08;91.65
65573;SHT30;52214;50.940;13.996;2022-12-22T15:35:35;8.98;92.05
65573;SHT30;52214;50.940;13.996;2022-12-22T15:38:01;9.08;92.02
65573;SHT30;52214;50.940;13.996;2022-12-22T15:40:27;9.08;91.91
65573;SHT30;52214;50.940;13.996;2022-12-22T15:42:53;9.35;93.35
65573;SHT30;52214;50.940;13.996;2022-12-22T15:45:20;9.28;93.55
65573;SHT30;52214;50.940;13.996;2022-12-22T15:47:51;9.33;95.33
65573;SHT30;52214;50.940;13.996;2022-12-22T15:50:30;9.32;95.84
65573;SHT30;52214;50.940;13.996;2022-12-22T15:52:57;9.33;96.98
65573;SHT30;52214;50.940;13.996;2022-12-22T15:55:24;9.26;97.21
65573;SHT30;52214;50.940;13.996;2022-12-22T15:57:52;9.19;98.06
65573;SHT30;52214;50.940;13.996;2022-12-22T16:00:19;9.30;98.34
65573;SHT30;52214;50.940;13.996;2022-12-22T16:02:45;9.33;98.09
65573;SHT30;52214;50.940;13.996;2022-12-22T16:05:12;9.26;99.14
65573;SHT30;52214;50.940;13.996;2022-12-22T16:07:39;9.22;99.82
65573;SHT30;52214;50.940;13.996;2022-12-22T16:10:07;9.11;99.99
65573;SHT30;52214;50.940;13.996;2022-12-22T16:12:42;9.01;99.99
65573;SHT30;52214;50.940;13.996;2022-12-22T16:15:13;8.94;99.99
65573;SHT30;52214;50.940;13.996;2022-12-22T16:17:39;8.87;99.99
65573;SHT30;52214;50.940;13.996;2022-12-22T16:20:05;8.87;99.99
65573;SHT30;52214;50.940;13.996;2022-12-22T16:22:32;8.80;99.99
65573;SHT30;52214;50.940;13.996;2022-12-22T16:25:01;8.75;99.99
65573;SHT30;52214;50.940;13.996;2022-12-22T16:27:28;8.81;99.99
65573;SHT30;52214;50.940;13.996;2022-12-22T16:29:56;8.71;99.99
65573;SHT30;52214;50.940;13.996;2022-12-22T16:32:23;8.70;99.99
65573;SHT30;52214;50.940;13.996;2022-12-22T16:34:48;8.60;99.99
65573;SHT30;52214;50.940;13.996;2022-12-22T16:37:14;8.71;99.99
65573;SHT30;52214;50.940;13.996;2022-12-22T16:39:39;8.74;99.99
65573;SHT30;52214;50.940;13.996;2022-12-22T16:42:10;8.61;99.99
65573;SHT30;52214;50.940;13.996;2022-12-22T16:44:36;8.67;99.99
65573;SHT30;52214;50.940;13.996;2022-12-22T16:47:03;8.63;99.99
65573;SHT30;52214;50.940;13.996;2022-12-22T16:49:29;8.53;99.99
65573;SHT30;52214;50.940;13.996;2022-12-22T16:51:55;8.56;99.99
65573;SHT30;52214;50.940;13.996;2022-12-22T16:54:21;8.53;99.99
65573;SHT30;52214;50.940;13.996;2022-12-22T16:56:46;8.59;99.99
65573;SHT30;52214;50.940;13.996;2022-12-22T16:59:14;8.59;99.99
65573;SHT30;52214;50.940;13.996;2022-12-22T17:01:51;8.42;99.99
65573;SHT30;52214;50.940;13.996;2022-12-22T17:04:20;8.43;99.99
65573;SHT30;52214;50.940;13.996;2022-12-22T17:06:47;8.39;99.99
65573;SHT30;52214;50.940;13.996;2022-12-22T17:09:20;8.35;99.99
65573;SHT30;52214;50.940;13.996;2022-12-22T17:11:47;8.38;99.99
65573;SHT30;52214;50.940;13.996;2022-12-22T17:14:25;8.35;99.99
65573;SHT30;52214;50.940;13.996;2022-12-22T17:16:51;8.24;99.99
65573;SHT30;52214;50.940;13.996;2022-12-22T17:19:17;8.25;99.99
65573;SHT30;52214;50.940;13.996;2022-12-22T17:21:44;8.13;99.99
65573;SHT30;52214;50.940;13.996;2022-12-22T17:24:13;8.15;99.99
65573;SHT30;52214;50.940;13.996;2022-12-22T17:26:39;8.28;99.99
65573;SHT30;52214;50.940;13.996;2022-12-22T17:29:05;8.22;99.99
65573;SHT30;52214;50.940;13.996;2022-12-22T17:31:30;8.22;99.99
65573;SHT30;52214;50.940;13.996;2022-12-22T17:33:56;8.18;99.99
65573;SHT30;52214;50.940;13.996;2022-12-22T17:36:34;8.22;99.99
65573;SHT30;52214;50.940;13.996;2022-12-22T17:39:00;8.19;99.99
65573;SHT30;52214;50.940;13.996;2022-12-22T17:41:26;8.19;99.99
65573;SHT30;52214;50.940;13.996;2022-12-22T17:43:52;8.06;99.99
65573;SHT30;52214;50.940;13.996;2022-12-22T17:46:19;7.98;99.99
65573;SHT30;52214;50.940;13.996;2022-12-22T17:48:46;8.08;99.99
65573;SHT30;52214;50.940;13.996;2022-12-22T17:51:23;8.05;99.99
65573;SHT30;52214;50.940;13.996;2022-12-22T17:53:49;7.94;99.99